createdAt,value
2018-06-30T00:01:11.352Z,3.37
2018-06-30T00:03:45.944Z,3.20
2018-06-30T00:06:14.986Z,2.83
2018-06-30T00:08:43.796Z,2.90
2018-06-30T00:11:12.508Z,3.53
2018-06-30T00:13:41.468Z,2.87
2018-06-30T00:16:10.507Z,2.70
2018-06-30T00:18:39.703Z,3.27
2018-06-30T00:21:09.084Z,2.77
2018-06-30T00:23:38.516Z,2.40
2018-06-30T00:26:07.807Z,2.90
2018-06-30T00:28:36.853Z,3.00
2018-06-30T00:31:05.923Z,2.77
2018-06-30T00:33:35.185Z,2.70
2018-06-30T00:36:04.504Z,2.87
2018-06-30T00:38:33.543Z,2.80
2018-06-30T00:41:02.402Z,2.87
2018-06-30T00:43:31.324Z,2.70
2018-06-30T00:46:00.393Z,2.50
2018-06-30T00:48:29.502Z,2.70
2018-06-30T00:54:08.276Z,2.97
2018-06-30T00:56:37.336Z,3.20
2018-06-30T00:59:06.436Z,3.33
2018-06-30T01:01:35.497Z,2.63
2018-06-30T01:04:04.836Z,2.70
2018-06-30T01:06:33.904Z,2.60
2018-06-30T01:09:02.795Z,2.50
2018-06-30T01:11:31.739Z,2.90
2018-06-30T01:14:00.820Z,2.60
2018-06-30T01:16:29.896Z,2.67
2018-06-30T01:18:58.956Z,2.20
2018-06-30T01:21:28.041Z,2.30
2018-06-30T01:23:57.092Z,2.13
2018-06-30T01:26:26.192Z,2.43
2018-06-30T01:28:55.257Z,2.67
2018-06-30T01:31:24.079Z,2.20
2018-06-30T01:33:52.747Z,2.27
2018-06-30T01:36:21.700Z,2.30
2018-06-30T01:38:50.760Z,2.43
2018-06-30T01:41:19.839Z,2.37
2018-06-30T01:43:48.905Z,2.10
2018-06-30T01:46:17.974Z,2.40
2018-06-30T01:48:47.144Z,2.17
2018-06-30T01:51:16.212Z,2.30
2018-06-30T01:53:45.004Z,2.50
2018-06-30T01:56:13.952Z,2.30
2018-06-30T01:58:42.995Z,2.17
2018-06-30T02:01:11.824Z,2.13
2018-06-30T02:03:40.756Z,2.70
2018-06-30T02:06:09.829Z,2.20
2018-06-30T02:08:38.883Z,2.50
2018-06-30T02:11:08.324Z,2.17
2018-06-30T02:13:37.471Z,1.93
2018-06-30T02:16:06.305Z,2.20
2018-06-30T02:18:35.231Z,2.00
2018-06-30T02:21:04.305Z,1.80
2018-06-30T02:23:33.366Z,2.27
2018-06-30T02:26:02.427Z,2.10
2018-06-30T02:28:31.227Z,2.20
2018-06-30T02:31:00.199Z,2.60
2018-06-30T02:33:29.256Z,1.97
2018-06-30T02:35:58.337Z,2.00
2018-06-30T02:38:27.401Z,2.67
2018-06-30T02:40:56.473Z,2.10
2018-06-30T02:43:25.533Z,2.47
2018-06-30T02:45:54.644Z,2.10
2018-06-30T02:48:23.689Z,2.60
2018-06-30T02:50:52.507Z,2.23
2018-06-30T02:53:21.176Z,2.57
2018-06-30T02:55:50.127Z,2.20
2018-06-30T02:58:19.196Z,2.97
2018-06-30T03:00:48.365Z,1.90
2018-06-30T03:03:17.160Z,3.67
2018-06-30T03:05:46.112Z,1.93
2018-06-30T03:08:15.160Z,1.77
2018-06-30T03:10:44.225Z,1.80
2018-06-30T03:13:13.265Z,1.77
2018-06-30T03:15:42.352Z,1.57
2018-06-30T03:18:11.400Z,1.60
2018-06-30T03:20:40.473Z,1.67
2018-06-30T03:23:09.519Z,2.20
2018-06-30T03:25:38.580Z,1.60
2018-06-30T03:28:07.632Z,1.50
2018-06-30T03:30:36.696Z,1.63
2018-06-30T03:33:05.499Z,1.67
2018-06-30T03:35:34.220Z,1.47
2018-06-30T03:38:03.143Z,1.20
2018-06-30T03:40:32.222Z,1.43
2018-06-30T03:43:01.272Z,1.30
2018-06-30T03:45:30.329Z,1.30
2018-06-30T03:47:59.376Z,1.23
2018-06-30T03:50:28.441Z,1.20
2018-06-30T03:52:57.315Z,1.20
2018-06-30T03:55:26.256Z,1.00
2018-06-30T03:57:55.315Z,1.30
2018-06-30T04:00:24.375Z,1.00
2018-06-30T04:02:53.428Z,1.07
2018-06-30T04:05:22.659Z,0.80
2018-06-30T04:07:51.715Z,1.00
2018-06-30T04:10:20.563Z,0.60
2018-06-30T04:12:49.490Z,0.70
2018-06-30T04:15:18.294Z,0.60
2018-06-30T04:17:47.233Z,0.90
2018-06-30T04:20:16.276Z,0.60
2018-06-30T04:22:45.368Z,0.60
2018-06-30T04:25:14.200Z,0.63
2018-06-30T04:27:43.139Z,0.80
2018-06-30T04:30:12.239Z,0.60
2018-06-30T04:32:41.180Z,0.63
2018-06-30T04:35:10.225Z,0.70
2018-06-30T04:37:39.075Z,0.60
2018-06-30T04:40:08.001Z,0.60
2018-06-30T04:42:37.064Z,0.50
2018-06-30T04:45:06.330Z,0.53
2018-06-30T04:47:35.375Z,0.50
2018-06-30T04:50:04.424Z,0.50
2018-06-30T04:52:33.496Z,0.60
2018-06-30T04:55:03.140Z,0.40
2018-06-30T04:57:33.237Z,0.50
2018-06-30T05:00:02.188Z,0.60
2018-06-30T05:02:31.137Z,0.50
2018-06-30T05:05:00.204Z,0.60
2018-06-30T05:07:29.019Z,0.77
2018-06-30T05:09:58.215Z,0.40
2018-06-30T05:12:27.320Z,0.60
2018-06-30T05:14:56.616Z,0.40
2018-06-30T05:17:25.672Z,0.67
2018-06-30T05:19:54.720Z,0.50
2018-06-30T05:22:23.791Z,0.40
2018-06-30T05:24:52.844Z,0.50
2018-06-30T05:27:21.915Z,0.60
2018-06-30T05:29:51.004Z,0.60
2018-06-30T05:32:20.067Z,0.60
2018-06-30T05:34:49.120Z,0.73
2018-06-30T05:37:18.188Z,0.80
2018-06-30T05:39:47.320Z,0.43
2018-06-30T05:42:16.480Z,0.40
2018-06-30T05:44:45.555Z,0.50
2018-06-30T05:47:14.620Z,0.50
2018-06-30T05:49:43.664Z,0.47
2018-06-30T05:52:12.728Z,0.60
2018-06-30T05:54:41.516Z,0.40
2018-06-30T05:57:10.460Z,0.53
2018-06-30T05:59:39.512Z,0.40
2018-06-30T06:02:08.575Z,0.50
2018-06-30T06:04:37.624Z,0.30
2018-06-30T06:07:06.692Z,0.43
2018-06-30T06:09:35.550Z,0.50
2018-06-30T06:12:04.456Z,0.30
2018-06-30T06:14:33.525Z,0.40
2018-06-30T06:17:02.587Z,0.40
2018-06-30T06:19:31.632Z,0.40
2018-06-30T06:22:00.700Z,0.50
2018-06-30T06:24:29.748Z,0.37
2018-06-30T06:26:58.816Z,0.37
2018-06-30T06:29:27.864Z,0.50
2018-06-30T06:31:56.932Z,0.30
2018-06-30T06:34:26.547Z,0.40
2018-06-30T06:36:55.684Z,0.30
2018-06-30T06:39:24.736Z,0.30
2018-06-30T06:41:53.560Z,0.23
2018-06-30T06:44:22.469Z,0.20
2018-06-30T06:46:51.540Z,0.33
2018-06-30T06:49:20.628Z,0.30
2018-06-30T06:51:49.696Z,0.30
2018-06-30T06:54:18.495Z,0.40
2018-06-30T06:56:47.436Z,0.40
2018-06-30T06:59:16.480Z,0.33
2018-06-30T07:01:45.338Z,0.30
2018-06-30T07:04:14.272Z,0.30
2018-06-30T07:06:43.063Z,0.20
2018-06-30T07:09:12.408Z,0.30
2018-06-30T07:11:41.459Z,0.20
2018-06-30T07:14:11.034Z,0.10
2018-06-30T07:16:39.956Z,0.10
2018-06-30T07:19:09.063Z,0.10
2018-06-30T07:21:38.083Z,0.10
2018-06-30T07:24:07.179Z,0.30
2018-06-30T07:26:36.331Z,0.30
2018-06-30T07:29:05.142Z,0.30
2018-06-30T07:31:33.890Z,0.20
2018-06-30T07:34:02.840Z,0.30
2018-06-30T07:36:31.879Z,0.20
2018-06-30T07:39:00.947Z,0.23
2018-06-30T07:41:30.005Z,0.10
2018-06-30T07:43:58.827Z,0.00
2018-06-30T07:46:27.752Z,0.17
2018-06-30T07:48:56.827Z,0.43
2018-06-30T07:51:25.873Z,0.20
2018-06-30T07:53:54.687Z,0.20
2018-06-30T07:56:23.351Z,0.20
2018-06-30T07:58:52.292Z,0.10
2018-06-30T08:01:21.344Z,0.10
2018-06-30T08:03:50.403Z,0.10
2018-06-30T08:06:19.456Z,0.10
2018-06-30T08:08:48.522Z,0.10
2018-06-30T08:11:17.312Z,0.10
2018-06-30T08:13:46.329Z,0.00
2018-06-30T08:16:15.366Z,0.07
2018-06-30T08:18:44.440Z,0.10
2018-06-30T08:21:13.541Z,0.10
2018-06-30T08:23:42.996Z,0.10
2018-06-30T08:26:11.786Z,0.10
2018-06-30T08:28:40.727Z,0.10
2018-06-30T08:31:09.776Z,0.00
2018-06-30T08:33:38.578Z,0.10
2018-06-30T08:36:07.796Z,0.10
2018-06-30T08:38:36.860Z,0.10
2018-06-30T08:41:05.933Z,0.20
2018-06-30T08:43:35.005Z,0.10
2018-06-30T08:46:04.052Z,0.20
2018-06-30T08:48:32.868Z,0.10
2018-06-30T08:51:01.846Z,0.10
2018-06-30T08:53:30.876Z,0.10
2018-06-30T08:55:59.915Z,0.20
2018-06-30T08:58:28.771Z,0.10
2018-06-30T09:00:57.688Z,0.10
2018-06-30T09:03:26.767Z,0.20
2018-06-30T09:05:55.828Z,0.17
2018-06-30T09:08:24.897Z,0.10
2018-06-30T09:10:53.952Z,0.10
2018-06-30T09:13:23.047Z,0.10
2018-06-30T09:15:52.112Z,0.10
2018-06-30T09:18:21.177Z,0.10
2018-06-30T09:20:49.972Z,0.10
2018-06-30T09:23:18.917Z,0.17
2018-06-30T09:25:47.964Z,0.10
2018-06-30T09:28:16.780Z,0.10
2018-06-30T09:30:45.701Z,0.23
2018-06-30T09:33:14.783Z,0.10
2018-06-30T09:35:43.846Z,0.10
2018-06-30T09:38:12.903Z,0.10
2018-06-30T09:40:42.088Z,0.10
2018-06-30T09:43:11.156Z,0.00
2018-06-30T09:45:40.201Z,0.10
2018-06-30T09:48:09.275Z,0.10
2018-06-30T09:50:38.341Z,0.07
2018-06-30T09:53:07.747Z,0.10
2018-06-30T09:55:36.792Z,0.10
2018-06-30T09:58:05.855Z,0.20
2018-06-30T10:00:39.247Z,0.10
2018-06-30T10:03:08.443Z,0.10
2018-06-30T10:05:37.492Z,0.10
2018-06-30T10:08:06.331Z,0.10
2018-06-30T10:10:35.292Z,0.10
2018-06-30T10:13:04.346Z,0.10
2018-06-30T10:15:33.436Z,0.10
2018-06-30T10:18:02.493Z,0.20
2018-06-30T10:20:31.557Z,0.10
2018-06-30T10:23:00.357Z,0.10
2018-06-30T10:25:29.294Z,0.20
2018-06-30T10:27:58.340Z,0.13
2018-06-30T10:30:27.152Z,0.10
2018-06-30T10:32:55.824Z,0.20
2018-06-30T10:35:24.515Z,0.10
2018-06-30T10:37:53.184Z,0.10
2018-06-30T10:40:22.139Z,0.10
2018-06-30T10:42:51.272Z,0.10
2018-06-30T10:45:20.096Z,0.10
2018-06-30T10:47:48.794Z,0.10
2018-06-30T10:50:17.736Z,0.20
2018-06-30T10:52:46.776Z,0.10
2018-06-30T10:55:15.856Z,0.10
2018-06-30T10:57:44.905Z,0.50
2018-06-30T11:00:14.024Z,0.10
2018-06-30T11:02:43.053Z,0.10
2018-06-30T11:05:12.650Z,0.10
2018-06-30T11:07:42.072Z,0.10
2018-06-30T11:10:11.179Z,0.00
2018-06-30T11:12:40.263Z,0.30
2018-06-30T11:15:09.349Z,0.10
2018-06-30T11:17:38.555Z,0.20
2018-06-30T11:20:07.619Z,0.13
2018-06-30T11:22:36.648Z,0.10
2018-06-30T11:25:06.581Z,0.20
2018-06-30T11:27:35.659Z,0.20
2018-06-30T11:30:05.297Z,0.20
2018-06-30T11:32:35.701Z,0.10
2018-06-30T11:35:05.008Z,0.20
2018-06-30T11:37:34.166Z,0.10
2018-06-30T11:40:02.980Z,0.20
2018-06-30T11:42:31.651Z,0.43
2018-06-30T11:45:00.589Z,0.10
2018-06-30T11:47:29.632Z,0.20
2018-06-30T11:49:58.684Z,0.20
2018-06-30T11:52:27.734Z,0.30
2018-06-30T11:54:57.276Z,0.20
2018-06-30T11:57:26.327Z,0.60
2018-06-30T11:59:55.388Z,0.60
2018-06-30T12:02:24.436Z,0.50
2018-06-30T12:04:53.501Z,0.30
2018-06-30T12:07:22.568Z,0.70
2018-06-30T12:09:51.695Z,1.60
2018-06-30T12:12:20.555Z,1.60
2018-06-30T12:14:49.516Z,0.50
2018-06-30T12:17:18.564Z,0.10
2018-06-30T12:19:47.626Z,0.20
2018-06-30T12:22:16.671Z,0.10
2018-06-30T12:24:45.519Z,0.10
2018-06-30T12:27:14.439Z,0.10
2018-06-30T12:29:43.515Z,0.10
2018-06-30T12:32:12.598Z,0.13
2018-06-30T12:34:41.669Z,0.10
2018-06-30T12:37:10.820Z,0.20
2018-06-30T12:39:39.889Z,0.10
2018-06-30T12:42:09.168Z,0.20
2018-06-30T12:44:38.232Z,0.10
2018-06-30T12:47:07.076Z,0.10
2018-06-30T12:49:36.028Z,0.07
2018-06-30T12:52:05.112Z,0.20
2018-06-30T12:54:34.108Z,0.10
2018-06-30T12:57:02.901Z,0.20
2018-06-30T12:59:31.952Z,0.10
2018-06-30T13:02:01.027Z,0.17
2018-06-30T13:04:30.076Z,0.20
2018-06-30T13:06:59.146Z,0.10
2018-06-30T13:09:28.196Z,0.25
2018-06-30T13:11:57.259Z,0.10
2018-06-30T13:14:26.323Z,0.15
2018-06-30T13:16:55.388Z,0.10
2018-06-30T13:19:24.440Z,0.20
2018-06-30T13:21:53.508Z,0.10
2018-06-30T13:24:22.583Z,0.17
2018-06-30T13:26:51.648Z,0.10
2018-06-30T13:29:20.479Z,0.17
2018-06-30T13:31:49.424Z,0.10
2018-06-30T13:34:18.223Z,0.03
2018-06-30T13:36:47.181Z,0.10
2018-06-30T13:39:16.243Z,0.20
2018-06-30T13:41:45.316Z,0.20
2018-06-30T13:44:14.367Z,0.20
2018-06-30T13:46:43.436Z,0.15
2018-06-30T13:49:12.489Z,0.10
2018-06-30T13:51:41.311Z,0.10
2018-06-30T13:54:09.983Z,0.35
2018-06-30T13:56:38.679Z,0.20
2018-06-30T13:59:07.383Z,0.10
2018-06-30T14:01:36.323Z,0.10
2018-06-30T14:04:05.393Z,0.17
2018-06-30T14:06:34.460Z,0.13
2018-06-30T14:09:03.985Z,0.20
2018-06-30T14:11:33.056Z,0.20
2018-06-30T14:14:02.108Z,0.20
2018-06-30T14:16:31.225Z,0.10
2018-06-30T14:19:00.247Z,0.15
2018-06-30T14:21:29.307Z,0.30
2018-06-30T14:23:58.112Z,0.20
2018-06-30T14:26:27.048Z,0.10
2018-06-30T14:28:56.428Z,0.13
2018-06-30T14:31:25.495Z,0.10
2018-06-30T14:33:54.439Z,0.10
2018-06-30T14:36:23.393Z,0.20
2018-06-30T14:38:52.436Z,0.20
2018-06-30T14:41:21.499Z,0.10
2018-06-30T14:43:50.561Z,0.15
2018-06-30T14:46:19.375Z,0.10
2018-06-30T14:48:48.042Z,0.20
2018-06-30T14:51:16.991Z,0.30
2018-06-30T14:53:46.040Z,0.20
2018-06-30T14:56:15.116Z,0.10
2018-06-30T14:58:43.912Z,0.20
2018-06-30T15:01:12.856Z,0.10
2018-06-30T15:03:41.912Z,0.10
2018-06-30T15:06:10.980Z,0.30
2018-06-30T15:08:40.033Z,0.20
2018-06-30T15:11:09.092Z,0.20
2018-06-30T15:13:38.145Z,0.10
2018-06-30T15:16:07.236Z,0.10
2018-06-30T15:18:36.287Z,0.10
2018-06-30T15:21:05.512Z,0.20
2018-06-30T15:23:34.555Z,0.20
2018-06-30T15:26:03.673Z,0.13
2018-06-30T15:28:32.472Z,0.20
2018-06-30T15:31:01.421Z,0.30
2018-06-30T15:33:30.473Z,0.10
2018-06-30T15:35:59.611Z,0.17
2018-06-30T15:38:28.624Z,0.10
2018-06-30T15:40:57.692Z,0.10
2018-06-30T15:43:26.743Z,0.10
2018-06-30T15:45:55.816Z,0.20
2018-06-30T15:48:24.855Z,0.20
2018-06-30T15:50:53.905Z,0.20
2018-06-30T15:53:22.976Z,0.10
2018-06-30T15:55:52.033Z,0.20
2018-06-30T15:58:21.100Z,0.20
2018-06-30T16:00:50.047Z,0.20
2018-06-30T16:03:19.020Z,0.13
2018-06-30T16:05:48.096Z,0.20
2018-06-30T16:08:16.919Z,0.13
2018-06-30T16:10:45.840Z,0.10
2018-06-30T16:13:14.904Z,0.10
2018-06-30T16:15:43.972Z,0.30
2018-06-30T16:18:13.040Z,0.20
2018-06-30T16:20:42.092Z,0.37
2018-06-30T16:23:11.152Z,0.80
2018-06-30T16:25:39.987Z,0.30
2018-06-30T16:28:08.981Z,0.20
2018-06-30T16:30:38.057Z,0.30
2018-06-30T16:33:07.139Z,0.20
2018-06-30T16:35:36.194Z,0.10
2018-06-30T16:38:05.264Z,0.20
2018-06-30T16:40:34.324Z,0.20
2018-06-30T16:43:03.400Z,0.40
2018-06-30T16:45:32.209Z,0.40
2018-06-30T16:48:01.148Z,0.20
2018-06-30T16:50:30.202Z,0.30
2018-06-30T16:52:59.276Z,1.02
2018-06-30T16:55:28.323Z,3.87
2018-06-30T16:57:57.386Z,0.30
2018-06-30T17:00:26.227Z,0.10
2018-06-30T17:02:55.144Z,0.60
2018-06-30T17:05:24.232Z,0.42
2018-06-30T17:07:53.304Z,0.20
2018-06-30T17:10:22.356Z,0.40
2018-06-30T17:12:51.424Z,0.47
2018-06-30T17:15:20.500Z,0.40
2018-06-30T17:17:49.571Z,0.30
2018-06-30T17:20:18.631Z,0.20
2018-06-30T17:22:47.485Z,0.20
2018-06-30T17:25:16.408Z,0.20
2018-06-30T17:27:45.259Z,0.20
2018-06-30T17:30:14.183Z,0.40
2018-06-30T17:32:43.244Z,0.20
2018-06-30T17:35:12.292Z,0.45
2018-06-30T17:37:41.116Z,0.20
2018-06-30T17:40:10.049Z,0.62
2018-06-30T17:42:39.120Z,0.40
2018-06-30T17:45:08.296Z,0.20
2018-06-30T17:47:37.364Z,0.40
2018-06-30T17:50:06.556Z,0.20
2018-06-30T17:52:35.368Z,0.20
2018-06-30T17:55:04.044Z,0.23
2018-06-30T17:57:32.984Z,0.20
2018-06-30T18:00:02.038Z,0.20
2018-06-30T18:02:31.128Z,0.20
2018-06-30T18:05:00.180Z,0.25
2018-06-30T18:07:29.349Z,0.20
2018-06-30T18:09:58.454Z,0.20
2018-06-30T18:12:27.551Z,0.17
2018-06-30T18:14:56.615Z,0.20
2018-06-30T18:17:25.423Z,0.50
2018-06-30T18:19:54.349Z,0.30
2018-06-30T18:22:23.479Z,0.30
2018-06-30T18:24:52.428Z,0.20
2018-06-30T18:27:21.363Z,0.20
2018-06-30T18:29:50.154Z,0.20
2018-06-30T18:32:19.448Z,0.25
2018-06-30T18:34:48.247Z,0.40
2018-06-30T18:37:17.199Z,0.20
2018-06-30T18:39:46.256Z,0.30
2018-06-30T18:42:15.356Z,0.30
2018-06-30T18:44:44.787Z,0.30
2018-06-30T18:47:13.840Z,0.20
2018-06-30T18:49:42.908Z,0.10
2018-06-30T18:52:12.193Z,0.40
2018-06-30T18:54:41.327Z,0.20
2018-06-30T18:57:10.355Z,0.25
2018-06-30T18:59:39.296Z,0.30
2018-06-30T19:02:08.348Z,0.20
2018-06-30T19:04:37.413Z,0.20
2018-06-30T19:07:06.461Z,0.37
2018-06-30T19:09:35.523Z,0.40
2018-06-30T19:12:04.581Z,0.30
2018-06-30T19:14:33.660Z,0.40
2018-06-30T19:17:02.721Z,0.30
2018-06-30T19:19:31.781Z,0.30
2018-06-30T19:22:00.580Z,0.30
2018-06-30T19:24:29.612Z,0.20
2018-06-30T19:26:58.663Z,0.30
2018-06-30T19:29:27.509Z,0.30
2018-06-30T19:31:56.441Z,0.30
2018-06-30T19:34:25.296Z,0.30
2018-06-30T19:36:54.304Z,0.20
2018-06-30T19:39:23.376Z,0.20
2018-06-30T19:41:52.799Z,0.23
2018-06-30T19:44:21.864Z,0.20
2018-06-30T19:46:51.136Z,0.20
2018-06-30T19:49:21.080Z,0.30
2018-06-30T19:51:50.126Z,0.40
2018-06-30T19:54:19.189Z,0.30
2018-06-30T19:56:48.242Z,0.40
2018-06-30T19:59:17.316Z,0.60
2018-06-30T20:01:46.406Z,0.40
2018-06-30T20:04:15.348Z,0.30
2018-06-30T20:06:44.396Z,0.30
2018-06-30T20:09:13.465Z,0.43
2018-06-30T20:11:42.512Z,1.60
2018-06-30T20:14:11.619Z,1.73
2018-06-30T20:16:40.667Z,0.90
2018-06-30T20:19:09.735Z,0.40
2018-06-30T20:21:38.788Z,0.80
2018-06-30T20:24:07.599Z,0.40
2018-06-30T20:26:36.323Z,1.20
2018-06-30T20:29:05.380Z,0.30
2018-06-30T20:31:34.344Z,2.10
2018-06-30T20:34:04.252Z,3.13
2018-06-30T20:36:33.304Z,2.27
2018-06-30T20:39:02.376Z,0.90
2018-06-30T20:41:31.415Z,1.50
2018-06-30T20:44:00.490Z,0.80
2018-06-30T20:46:29.527Z,0.40
2018-06-30T20:48:58.704Z,3.70
2018-06-30T20:51:27.764Z,1.63
2018-06-30T20:53:56.828Z,0.83
2018-06-30T20:56:25.914Z,0.50
2018-06-30T20:58:54.787Z,0.50
2018-06-30T21:01:23.769Z,0.33
2018-06-30T21:03:52.908Z,0.50
2018-06-30T21:06:21.748Z,1.40
2018-06-30T21:08:50.684Z,1.40
2018-06-30T21:11:20.083Z,0.50
2018-06-30T21:13:49.137Z,0.53
2018-06-30T21:16:18.205Z,0.30
2018-06-30T21:18:47.263Z,0.97
2018-06-30T21:21:16.307Z,0.50
2018-06-30T21:23:45.373Z,0.50
2018-06-30T21:26:14.428Z,0.50
2018-06-30T21:28:43.487Z,0.70
2018-06-30T21:31:12.527Z,0.40
2018-06-30T21:33:41.596Z,0.50
2018-06-30T21:36:10.640Z,0.60
2018-06-30T21:38:39.683Z,0.60
2018-06-30T21:41:08.763Z,0.80
2018-06-30T21:43:37.803Z,0.70
2018-06-30T21:46:07.106Z,0.40
2018-06-30T21:48:36.580Z,0.30
2018-06-30T21:51:05.664Z,0.30
2018-06-30T21:53:34.716Z,0.30
2018-06-30T21:56:03.784Z,0.40
2018-06-30T21:58:32.833Z,0.33
2018-06-30T22:01:32.519Z,0.60
2018-06-30T22:04:01.452Z,0.30
2018-06-30T22:06:30.509Z,0.50
2018-06-30T22:08:59.580Z,0.40
2018-06-30T22:11:28.663Z,0.40
2018-06-30T22:13:57.703Z,0.30
2018-06-30T22:16:26.789Z,0.40
2018-06-30T22:18:55.844Z,0.47
2018-06-30T22:21:24.912Z,0.30
2018-06-30T22:23:53.706Z,0.30
2018-06-30T22:26:22.661Z,0.30
2018-06-30T22:28:51.722Z,0.43
2018-06-30T22:31:20.817Z,0.30
2018-06-30T22:33:49.872Z,0.30
2018-06-30T22:36:18.768Z,0.20
2018-06-30T22:38:47.696Z,0.30
2018-06-30T22:41:16.760Z,0.50
2018-06-30T22:43:45.812Z,0.40
2018-06-30T22:46:14.883Z,0.30
2018-06-30T22:48:43.927Z,0.30
2018-06-30T22:51:12.796Z,0.30
2018-06-30T22:53:41.732Z,0.40
2018-06-30T22:56:10.588Z,0.40
2018-06-30T22:58:39.512Z,0.33
2018-06-30T23:01:08.358Z,0.30
2018-06-30T23:03:37.299Z,0.30
2018-06-30T23:06:06.150Z,0.30
2018-06-30T23:08:39.304Z,0.60
2018-06-30T23:11:08.372Z,0.40
2018-06-30T23:13:37.211Z,0.30
2018-06-30T23:16:06.197Z,0.40
2018-06-30T23:18:35.235Z,0.37
2018-06-30T23:21:04.303Z,0.40
2018-06-30T23:23:33.429Z,0.50
2018-06-30T23:26:02.464Z,0.30
2018-06-30T23:28:31.509Z,0.30
2018-06-30T23:31:00.848Z,0.40
2018-06-30T23:33:29.781Z,0.50
2018-06-30T23:35:58.856Z,0.30
2018-06-30T23:38:27.919Z,0.47
2018-06-30T23:40:56.739Z,0.40
2018-06-30T23:43:25.415Z,0.27
2018-06-30T23:45:54.156Z,0.20
2018-06-30T23:48:23.084Z,0.40
2018-06-30T23:50:51.904Z,0.50
2018-06-30T23:53:20.832Z,0.40
2018-06-30T23:55:49.912Z,0.30
2018-06-30T23:58:18.959Z,0.40
